首页
METAR-TAF:

METAR-TAF

机场 :

拉瓜地亞機場

纽约 / 拉瓜地亞, 紐約州, 美国

纬度: 40-46-45N, 经度: 073-52-48W, 海拔: 6米

当前天气观测

该预报发布于6分钟前的06:35 UTC
风速9节,风向
温度 19°C
湿度 94%
气压 1008 hPa
能見度: 4.8公里
散云层高于500英尺
散云层高于1000英尺
阴天层高于1900英尺
大雨, 轻雾

METAR: KLGA 210635Z 01009KT 3SM +RA BR SCT005 SCT010 OVC019 19/18 A2976 RMK AO2 P0040 T01940183

时间: 02:41 (06:41 UTC)

预报

该预报发布于15分钟前的06:26 UTC
预报有效从21日的 06点(UTC)到 22日的 12点(UTC)
风速3节,风向多变
能見度: 9.7公里
少量云层高于1500英尺
阴天层高于3000英尺
小雨
短暂存在
从 21日的 06点(UTC)到 21日的 10点(UTC)
能見度: 6.4公里
多云层高于800英尺
多云层高于1500英尺
雨, 轻雾
从 21日的 1000点(UTC)
风速7节,风向北转东北
能見度: 10公里
阴天层高于3000英尺
小雨
从 21日的 1200点(UTC)
风速12节,风向北转东北
能見度: 10公里
多云层高于4000英尺
从 21日的 2000点(UTC)
风速10节,风向东转东北
能見度: 10公里
少量云层高于25000英尺
从 22日的 0200点(UTC)
风速7节,风向东转东北
能見度: 10公里
少量云层高于25000英尺
从 22日的 0900点(UTC)
风速10节,风向东转东北
能見度: 10公里
散云层高于5000英尺

TAF: KLGA 210626Z 2106/2212 VRB03KT 6SM -RA FEW015 OVC030 TEMPO 2106/2110 4SM RA BR BKN008 BKN015 FM211000 02007KT P6SM -RA OVC030 FM211200 03012KT P6SM BKN040 FM212000 06010KT P6SM FEW250 FM220200 07007KT P6SM FEW250 FM220900 07010KT P6SM SCT050

超过4000个机场的气象观测和天气预报(METAR&TAF报告)。

可查询的气象台以黄色和红色小点在地图上表示。

将鼠标移到小点上方,可查看气象台名称。

然后点击查看天气观测和预报。

如需切换地图:点击带黑十字的绿色按钮放大地图;点击带横线的绿色按钮缩小地图;或者点击绿色箭头查看邻近地区的地图。


METAR-TAF: